sensor_id;sensor_type;location;lat;lon;timestamp;P1;durP1;ratioP1;P2;durP2;ratioP2
45039;SDS011;30778;53.574;7.770;2022-08-19T00:02:04;4.68;;;1.23;;
45039;SDS011;30778;53.574;7.770;2022-08-19T00:04:31;2.13;;;1.10;;
45039;SDS011;30778;53.574;7.770;2022-08-19T00:07:00;2.22;;;0.93;;
45039;SDS011;30778;53.574;7.770;2022-08-19T00:09:26;1.88;;;1.30;;
45039;SDS011;30778;53.574;7.770;2022-08-19T00:11:53;4.47;;;1.73;;
45039;SDS011;30778;53.574;7.770;2022-08-19T00:14:20;4.03;;;1.77;;
45039;SDS011;30778;53.574;7.770;2022-08-19T00:16:47;2.17;;;0.98;;
45039;SDS011;30778;53.574;7.770;2022-08-19T00:19:13;2.33;;;1.40;;
45039;SDS011;30778;53.574;7.770;2022-08-19T00:21:40;1.88;;;1.27;;
45039;SDS011;30778;53.574;7.770;2022-08-19T00:24:10;1.63;;;1.08;;
45039;SDS011;30778;53.574;7.770;2022-08-19T00:26:37;2.72;;;1.75;;
45039;SDS011;30778;53.574;7.770;2022-08-19T00:29:04;2.38;;;1.55;;
45039;SDS011;30778;53.574;7.770;2022-08-19T00:31:31;2.45;;;1.55;;
45039;SDS011;30778;53.574;7.770;2022-08-19T00:33:57;3.88;;;1.52;;
45039;SDS011;30778;53.574;7.770;2022-08-19T00:36:23;2.45;;;1.73;;
45039;SDS011;30778;53.574;7.770;2022-08-19T00:38:48;5.15;;;1.50;;
45039;SDS011;30778;53.574;7.770;2022-08-19T00:41:17;1.70;;;1.33;;
45039;SDS011;30778;53.574;7.770;2022-08-19T00:46:35;2.00;;;1.17;;
45039;SDS011;30778;53.574;7.770;2022-08-19T00:49:05;1.52;;;1.35;;
45039;SDS011;30778;53.574;7.770;2022-08-19T00:54:00;2.28;;;1.20;;
45039;SDS011;30778;53.574;7.770;2022-08-19T00:56:27;2.13;;;1.10;;
45039;SDS011;30778;53.574;7.770;2022-08-19T00:58:56;1.70;;;1.52;;
45039;SDS011;30778;53.574;7.770;2022-08-19T01:01:23;2.45;;;1.52;;
45039;SDS011;30778;53.574;7.770;2022-08-19T01:03:49;3.50;;;1.52;;
45039;SDS011;30778;53.574;7.770;2022-08-19T01:06:15;3.38;;;1.67;;
45039;SDS011;30778;53.574;7.770;2022-08-19T01:08:41;3.25;;;2.80;;
45039;SDS011;30778;53.574;7.770;2022-08-19T01:11:07;1.98;;;1.38;;
45039;SDS011;30778;53.574;7.770;2022-08-19T01:13:35;4.90;;;1.92;;
45039;SDS011;30778;53.574;7.770;2022-08-19T01:16:03;4.38;;;2.30;;
45039;SDS011;30778;53.574;7.770;2022-08-19T01:18:31;3.08;;;1.40;;
45039;SDS011;30778;53.574;7.770;2022-08-19T01:21:02;7.93;;;1.85;;
45039;SDS011;30778;53.574;7.770;2022-08-19T01:23:32;2.30;;;1.85;;
45039;SDS011;30778;53.574;7.770;2022-08-19T01:26:15;3.83;;;2.65;;
45039;SDS011;30778;53.574;7.770;2022-08-19T01:28:43;3.22;;;1.83;;
45039;SDS011;30778;53.574;7.770;2022-08-19T01:31:12;2.08;;;1.58;;
45039;SDS011;30778;53.574;7.770;2022-08-19T01:33:40;2.33;;;2.10;;
45039;SDS011;30778;53.574;7.770;2022-08-19T01:36:13;2.30;;;1.90;;
45039;SDS011;30778;53.574;7.770;2022-08-19T01:38:47;3.73;;;2.40;;
45039;SDS011;30778;53.574;7.770;2022-08-19T01:41:13;3.42;;;1.75;;
45039;SDS011;30778;53.574;7.770;2022-08-19T01:43:39;2.17;;;1.73;;
45039;SDS011;30778;53.574;7.770;2022-08-19T01:46:05;3.58;;;1.80;;
45039;SDS011;30778;53.574;7.770;2022-08-19T01:48:36;5.78;;;3.08;;
45039;SDS011;30778;53.574;7.770;2022-08-19T01:51:04;2.65;;;2.30;;
45039;SDS011;30778;53.574;7.770;2022-08-19T01:53:31;3.60;;;1.90;;
45039;SDS011;30778;53.574;7.770;2022-08-19T01:55:57;3.53;;;2.25;;
45039;SDS011;30778;53.574;7.770;2022-08-19T01:58:24;2.40;;;1.67;;
45039;SDS011;30778;53.574;7.770;2022-08-19T02:00:56;4.00;;;2.10;;
45039;SDS011;30778;53.574;7.770;2022-08-19T02:03:22;2.88;;;2.58;;
45039;SDS011;30778;53.574;7.770;2022-08-19T02:05:52;2.40;;;1.85;;
45039;SDS011;30778;53.574;7.770;2022-08-19T02:08:20;4.43;;;2.65;;
45039;SDS011;30778;53.574;7.770;2022-08-19T02:10:45;3.15;;;2.55;;
45039;SDS011;30778;53.574;7.770;2022-08-19T02:13:11;4.82;;;2.90;;
45039;SDS011;30778;53.574;7.770;2022-08-19T02:15:38;3.45;;;2.50;;
45039;SDS011;30778;53.574;7.770;2022-08-19T02:18:05;6.60;;;4.45;;
45039;SDS011;30778;53.574;7.770;2022-08-19T02:20:31;3.63;;;3.30;;
45039;SDS011;30778;53.574;7.770;2022-08-19T02:22:56;5.15;;;2.92;;
45039;SDS011;30778;53.574;7.770;2022-08-19T02:25:22;4.38;;;3.17;;
45039;SDS011;30778;53.574;7.770;2022-08-19T02:27:47;3.40;;;3.05;;
45039;SDS011;30778;53.574;7.770;2022-08-19T02:30:14;5.80;;;4.20;;
45039;SDS011;30778;53.574;7.770;2022-08-19T02:32:41;7.00;;;3.90;;
45039;SDS011;30778;53.574;7.770;2022-08-19T02:35:07;4.80;;;4.30;;
45039;SDS011;30778;53.574;7.770;2022-08-19T02:37:33;4.55;;;3.83;;
45039;SDS011;30778;53.574;7.770;2022-08-19T02:40:18;6.32;;;4.35;;
45039;SDS011;30778;53.574;7.770;2022-08-19T02:42:44;9.52;;;3.95;;
45039;SDS011;30778;53.574;7.770;2022-08-19T02:45:11;3.67;;;3.33;;
45039;SDS011;30778;53.574;7.770;2022-08-19T02:47:38;3.88;;;3.15;;
45039;SDS011;30778;53.574;7.770;2022-08-19T02:50:04;3.25;;;2.67;;
45039;SDS011;30778;53.574;7.770;2022-08-19T02:52:30;10.85;;;3.70;;
45039;SDS011;30778;53.574;7.770;2022-08-19T02:54:57;4.88;;;3.17;;
45039;SDS011;30778;53.574;7.770;2022-08-19T02:57:23;5.75;;;3.60;;
45039;SDS011;30778;53.574;7.770;2022-08-19T02:59:49;6.43;;;4.05;;
45039;SDS011;30778;53.574;7.770;2022-08-19T03:02:15;5.75;;;3.42;;
45039;SDS011;30778;53.574;7.770;2022-08-19T03:04:41;5.63;;;3.42;;
45039;SDS011;30778;53.574;7.770;2022-08-19T03:07:07;4.00;;;3.10;;
45039;SDS011;30778;53.574;7.770;2022-08-19T03:09:35;6.05;;;4.82;;
45039;SDS011;30778;53.574;7.770;2022-08-19T03:12:02;5.15;;;4.05;;
45039;SDS011;30778;53.574;7.770;2022-08-19T03:14:32;5.70;;;3.92;;
45039;SDS011;30778;53.574;7.770;2022-08-19T03:16:59;5.00;;;3.65;;
45039;SDS011;30778;53.574;7.770;2022-08-19T03:19:25;7.28;;;3.67;;
45039;SDS011;30778;53.574;7.770;2022-08-19T03:21:51;6.88;;;4.80;;
45039;SDS011;30778;53.574;7.770;2022-08-19T03:24:17;5.32;;;3.78;;
45039;SDS011;30778;53.574;7.770;2022-08-19T03:26:48;3.67;;;3.20;;
45039;SDS011;30778;53.574;7.770;2022-08-19T03:29:15;4.72;;;3.65;;
45039;SDS011;30778;53.574;7.770;2022-08-19T03:31:42;4.50;;;3.35;;
45039;SDS011;30778;53.574;7.770;2022-08-19T03:34:09;5.15;;;3.30;;
45039;SDS011;30778;53.574;7.770;2022-08-19T03:36:36;4.85;;;4.07;;
45039;SDS011;30778;53.574;7.770;2022-08-19T03:39:03;5.13;;;3.72;;
45039;SDS011;30778;53.574;7.770;2022-08-19T03:41:35;4.60;;;3.60;;
45039;SDS011;30778;53.574;7.770;2022-08-19T03:44:03;3.92;;;3.10;;
45039;SDS011;30778;53.574;7.770;2022-08-19T03:46:30;6.15;;;3.30;;
45039;SDS011;30778;53.574;7.770;2022-08-19T03:48:58;5.10;;;3.45;;
45039;SDS011;30778;53.574;7.770;2022-08-19T03:51:27;5.00;;;3.17;;
45039;SDS011;30778;53.574;7.770;2022-08-19T03:53:57;3.67;;;3.05;;
45039;SDS011;30778;53.574;7.770;2022-08-19T03:56:25;8.25;;;4.45;;
45039;SDS011;30778;53.574;7.770;2022-08-19T03:58:51;4.68;;;3.55;;
45039;SDS011;30778;53.574;7.770;2022-08-19T04:01:18;7.10;;;3.63;;
45039;SDS011;30778;53.574;7.770;2022-08-19T04:03:46;4.88;;;3.58;;
45039;SDS011;30778;53.574;7.770;2022-08-19T04:06:17;3.47;;;3.10;;
45039;SDS011;30778;53.574;7.770;2022-08-19T04:08:47;5.13;;;3.13;;
45039;SDS011;30778;53.574;7.770;2022-08-19T04:11:14;5.13;;;4.05;;
45039;SDS011;30778;53.574;7.770;2022-08-19T04:13:42;4.28;;;3.47;;
45039;SDS011;30778;53.574;7.770;2022-08-19T04:16:10;3.67;;;2.60;;
45039;SDS011;30778;53.574;7.770;2022-08-19T04:18:36;3.55;;;3.17;;
45039;SDS011;30778;53.574;7.770;2022-08-19T04:21:04;9.38;;;4.15;;
45039;SDS011;30778;53.574;7.770;2022-08-19T04:23:31;8.35;;;4.82;;
45039;SDS011;30778;53.574;7.770;2022-08-19T04:25:57;6.95;;;3.70;;
45039;SDS011;30778;53.574;7.770;2022-08-19T04:28:23;4.47;;;3.72;;
45039;SDS011;30778;53.574;7.770;2022-08-19T04:30:50;8.68;;;4.20;;
45039;SDS011;30778;53.574;7.770;2022-08-19T04:33:18;4.95;;;3.78;;
45039;SDS011;30778;53.574;7.770;2022-08-19T04:35:47;9.27;;;5.30;;
45039;SDS011;30778;53.574;7.770;2022-08-19T04:38:15;4.55;;;4.03;;
45039;SDS011;30778;53.574;7.770;2022-08-19T04:40:42;6.28;;;4.50;;
45039;SDS011;30778;53.574;7.770;2022-08-19T04:43:29;6.82;;;5.13;;
45039;SDS011;30778;53.574;7.770;2022-08-19T04:45:56;10.80;;;5.35;;
45039;SDS011;30778;53.574;7.770;2022-08-19T04:48:22;6.88;;;4.93;;
45039;SDS011;30778;53.574;7.770;2022-08-19T04:50:57;7.78;;;4.72;;
45039;SDS011;30778;53.574;7.770;2022-08-19T04:53:30;7.13;;;4.68;;
45039;SDS011;30778;53.574;7.770;2022-08-19T04:55:57;6.40;;;4.35;;
45039;SDS011;30778;53.574;7.770;2022-08-19T04:58:25;6.90;;;5.32;;
45039;SDS011;30778;53.574;7.770;2022-08-19T05:00:53;7.13;;;4.45;;
45039;SDS011;30778;53.574;7.770;2022-08-19T05:03:19;7.60;;;5.32;;
45039;SDS011;30778;53.574;7.770;2022-08-19T05:05:45;6.15;;;4.05;;
45039;SDS011;30778;53.574;7.770;2022-08-19T05:08:13;8.60;;;5.25;;
45039;SDS011;30778;53.574;7.770;2022-08-19T05:10:44;7.65;;;4.55;;
45039;SDS011;30778;53.574;7.770;2022-08-19T05:13:12;6.05;;;4.60;;
45039;SDS011;30778;53.574;7.770;2022-08-19T05:15:38;6.88;;;4.85;;
45039;SDS011;30778;53.574;7.770;2022-08-19T05:18:04;5.13;;;3.38;;
45039;SDS011;30778;53.574;7.770;2022-08-19T05:20:48;6.13;;;4.68;;
45039;SDS011;30778;53.574;7.770;2022-08-19T05:23:32;6.55;;;4.43;;
45039;SDS011;30778;53.574;7.770;2022-08-19T05:25:57;7.40;;;5.68;;
45039;SDS011;30778;53.574;7.770;2022-08-19T05:28:23;8.70;;;5.85;;
45039;SDS011;30778;53.574;7.770;2022-08-19T05:30:48;6.35;;;4.50;;
45039;SDS011;30778;53.574;7.770;2022-08-19T05:33:16;7.28;;;4.15;;
45039;SDS011;30778;53.574;7.770;2022-08-19T05:35:43;9.13;;;5.55;;
45039;SDS011;30778;53.574;7.770;2022-08-19T05:38:09;8.02;;;5.25;;
45039;SDS011;30778;53.574;7.770;2022-08-19T05:40:36;7.30;;;4.72;;
45039;SDS011;30778;53.574;7.770;2022-08-19T05:43:04;6.28;;;5.10;;
45039;SDS011;30778;53.574;7.770;2022-08-19T05:45:31;5.22;;;4.03;;
45039;SDS011;30778;53.574;7.770;2022-08-19T05:47:57;5.13;;;4.63;;
45039;SDS011;30778;53.574;7.770;2022-08-19T05:50:23;5.55;;;4.30;;
45039;SDS011;30778;53.574;7.770;2022-08-19T05:52:51;4.82;;;3.38;;
45039;SDS011;30778;53.574;7.770;2022-08-19T05:55:17;5.78;;;3.40;;
45039;SDS011;30778;53.574;7.770;2022-08-19T05:57:45;7.55;;;3.10;;
45039;SDS011;30778;53.574;7.770;2022-08-19T06:00:11;4.90;;;2.72;;
45039;SDS011;30778;53.574;7.770;2022-08-19T06:02:38;4.82;;;3.33;;
45039;SDS011;30778;53.574;7.770;2022-08-19T06:05:05;4.35;;;3.58;;
45039;SDS011;30778;53.574;7.770;2022-08-19T06:07:34;5.68;;;3.60;;
45039;SDS011;30778;53.574;7.770;2022-08-19T06:10:03;4.80;;;2.85;;
45039;SDS011;30778;53.574;7.770;2022-08-19T06:12:30;7.32;;;3.50;;
45039;SDS011;30778;53.574;7.770;2022-08-19T06:14:59;3.92;;;3.50;;
45039;SDS011;30778;53.574;7.770;2022-08-19T06:17:30;5.90;;;4.05;;
45039;SDS011;30778;53.574;7.770;2022-08-19T06:19:56;24.02;;;14.80;;
45039;SDS011;30778;53.574;7.770;2022-08-19T06:22:22;11.73;;;8.18;;
45039;SDS011;30778;53.574;7.770;2022-08-19T06:24:48;5.88;;;3.78;;
45039;SDS011;30778;53.574;7.770;2022-08-19T06:27:17;2.97;;;2.65;;
45039;SDS011;30778;53.574;7.770;2022-08-19T06:29:43;5.07;;;3.33;;
45039;SDS011;30778;53.574;7.770;2022-08-19T06:32:10;4.47;;;4.07;;
45039;SDS011;30778;53.574;7.770;2022-08-19T06:34:36;3.97;;;3.15;;
45039;SDS011;30778;53.574;7.770;2022-08-19T06:37:01;7.85;;;6.07;;
45039;SDS011;30778;53.574;7.770;2022-08-19T06:39:28;6.57;;;4.05;;
45039;SDS011;30778;53.574;7.770;2022-08-19T06:41:59;4.47;;;3.67;;
45039;SDS011;30778;53.574;7.770;2022-08-19T06:44:29;6.80;;;3.30;;
45039;SDS011;30778;53.574;7.770;2022-08-19T06:47:00;4.90;;;4.38;;
45039;SDS011;30778;53.574;7.770;2022-08-19T06:49:28;5.20;;;4.60;;
45039;SDS011;30778;53.574;7.770;2022-08-19T06:51:56;5.22;;;4.55;;
45039;SDS011;30778;53.574;7.770;2022-08-19T06:54:23;4.22;;;3.83;;
45039;SDS011;30778;53.574;7.770;2022-08-19T06:56:50;4.85;;;3.33;;
45039;SDS011;30778;53.574;7.770;2022-08-19T06:59:18;5.63;;;4.53;;
45039;SDS011;30778;53.574;7.770;2022-08-19T07:01:50;4.75;;;3.97;;
45039;SDS011;30778;53.574;7.770;2022-08-19T07:06:44;4.18;;;3.05;;
45039;SDS011;30778;53.574;7.770;2022-08-19T07:09:15;3.47;;;3.17;;
45039;SDS011;30778;53.574;7.770;2022-08-19T07:11:47;2.17;;;1.98;;
45039;SDS011;30778;53.574;7.770;2022-08-19T07:14:15;6.95;;;2.95;;
45039;SDS011;30778;53.574;7.770;2022-08-19T07:16:43;4.30;;;2.85;;
45039;SDS011;30778;53.574;7.770;2022-08-19T07:19:10;2.00;;;1.60;;
45039;SDS011;30778;53.574;7.770;2022-08-19T07:21:37;4.38;;;1.85;;
45039;SDS011;30778;53.574;7.770;2022-08-19T07:24:03;2.88;;;2.30;;
45039;SDS011;30778;53.574;7.770;2022-08-19T07:26:32;3.05;;;1.45;;
45039;SDS011;30778;53.574;7.770;2022-08-19T07:29:03;4.55;;;2.28;;
45039;SDS011;30778;53.574;7.770;2022-08-19T07:31:30;2.85;;;2.33;;
45039;SDS011;30778;53.574;7.770;2022-08-19T07:33:56;3.03;;;1.63;;
45039;SDS011;30778;53.574;7.770;2022-08-19T07:36:26;2.50;;;1.55;;
45039;SDS011;30778;53.574;7.770;2022-08-19T07:38:57;4.57;;;2.00;;
45039;SDS011;30778;53.574;7.770;2022-08-19T07:41:25;1.90;;;1.20;;
45039;SDS011;30778;53.574;7.770;2022-08-19T07:43:54;2.65;;;1.33;;
45039;SDS011;30778;53.574;7.770;2022-08-19T07:46:20;3.38;;;1.48;;
45039;SDS011;30778;53.574;7.770;2022-08-19T07:48:46;1.90;;;1.13;;
45039;SDS011;30778;53.574;7.770;2022-08-19T07:51:16;4.90;;;1.45;;
45039;SDS011;30778;53.574;7.770;2022-08-19T07:53:44;1.75;;;0.90;;
45039;SDS011;30778;53.574;7.770;2022-08-19T07:56:11;6.93;;;1.83;;
45039;SDS011;30778;53.574;7.770;2022-08-19T07:58:39;1.75;;;0.73;;
45039;SDS011;30778;53.574;7.770;2022-08-19T08:01:07;5.82;;;1.58;;
45039;SDS011;30778;53.574;7.770;2022-08-19T08:03:35;4.82;;;1.70;;
45039;SDS011;30778;53.574;7.770;2022-08-19T08:06:20;2.45;;;1.60;;
45039;SDS011;30778;53.574;7.770;2022-08-19T08:09:04;3.00;;;1.40;;
45039;SDS011;30778;53.574;7.770;2022-08-19T08:12:38;2.03;;;1.77;;
45039;SDS011;30778;53.574;7.770;2022-08-19T08:14:37;4.72;;;1.98;;
45039;SDS011;30778;53.574;7.770;2022-08-19T08:17:07;3.33;;;1.48;;
45039;SDS011;30778;53.574;7.770;2022-08-19T08:19:34;1.85;;;1.55;;
45039;SDS011;30778;53.574;7.770;2022-08-19T08:22:01;2.60;;;1.27;;
45039;SDS011;30778;53.574;7.770;2022-08-19T08:24:29;4.10;;;1.63;;
45039;SDS011;30778;53.574;7.770;2022-08-19T08:26:59;3.53;;;2.28;;
45039;SDS011;30778;53.574;7.770;2022-08-19T08:29:26;3.20;;;1.98;;
45039;SDS011;30778;53.574;7.770;2022-08-19T08:31:54;5.60;;;2.88;;
45039;SDS011;30778;53.574;7.770;2022-08-19T08:34:20;6.22;;;3.05;;
45039;SDS011;30778;53.574;7.770;2022-08-19T08:36:46;5.03;;;2.75;;
45039;SDS011;30778;53.574;7.770;2022-08-19T08:39:13;3.28;;;2.28;;
45039;SDS011;30778;53.574;7.770;2022-08-19T08:41:52;4.07;;;2.22;;
45039;SDS011;30778;53.574;7.770;2022-08-19T08:47:23;5.95;;;3.05;;
45039;SDS011;30778;53.574;7.770;2022-08-19T08:49:54;8.02;;;3.58;;
45039;SDS011;30778;53.574;7.770;2022-08-19T08:52:36;5.38;;;4.32;;
45039;SDS011;30778;53.574;7.770;2022-08-19T08:55:13;6.80;;;3.65;;
45039;SDS011;30778;53.574;7.770;2022-08-19T09:00:24;5.90;;;4.22;;
45039;SDS011;30778;53.574;7.770;2022-08-19T09:02:53;6.78;;;3.17;;
45039;SDS011;30778;53.574;7.770;2022-08-19T09:05:20;8.55;;;4.90;;
45039;SDS011;30778;53.574;7.770;2022-08-19T09:08:13;10.05;;;6.25;;
45039;SDS011;30778;53.574;7.770;2022-08-19T09:10:53;4.65;;;4.07;;
45039;SDS011;30778;53.574;7.770;2022-08-19T09:16:09;5.20;;;4.70;;
45039;SDS011;30778;53.574;7.770;2022-08-19T09:18:44;4.50;;;3.75;;
45039;SDS011;30778;53.574;7.770;2022-08-19T09:21:12;4.35;;;3.42;;
45039;SDS011;30778;53.574;7.770;2022-08-19T09:23:40;7.50;;;4.47;;
45039;SDS011;30778;53.574;7.770;2022-08-19T09:26:07;9.13;;;4.30;;
45039;SDS011;30778;53.574;7.770;2022-08-19T09:28:42;7.45;;;4.97;;
45039;SDS011;30778;53.574;7.770;2022-08-19T09:31:13;5.47;;;4.05;;
45039;SDS011;30778;53.574;7.770;2022-08-19T09:33:40;7.30;;;4.40;;
45039;SDS011;30778;53.574;7.770;2022-08-19T09:36:09;7.10;;;5.15;;
45039;SDS011;30778;53.574;7.770;2022-08-19T09:38:38;7.88;;;5.05;;
45039;SDS011;30778;53.574;7.770;2022-08-19T09:41:15;9.35;;;5.95;;
45039;SDS011;30778;53.574;7.770;2022-08-19T09:43:45;4.22;;;3.58;;
45039;SDS011;30778;53.574;7.770;2022-08-19T09:46:12;7.47;;;5.10;;
45039;SDS011;30778;53.574;7.770;2022-08-19T09:48:38;4.63;;;4.15;;
45039;SDS011;30778;53.574;7.770;2022-08-19T09:51:10;8.25;;;4.63;;
45039;SDS011;30778;53.574;7.770;2022-08-19T09:53:40;9.98;;;4.65;;
45039;SDS011;30778;53.574;7.770;2022-08-19T09:56:07;4.80;;;3.63;;
45039;SDS011;30778;53.574;7.770;2022-08-19T09:58:34;5.13;;;3.70;;
45039;SDS011;30778;53.574;7.770;2022-08-19T10:01:01;4.78;;;4.32;;
45039;SDS011;30778;53.574;7.770;2022-08-19T10:03:27;6.13;;;3.55;;
45039;SDS011;30778;53.574;7.770;2022-08-19T10:05:54;5.25;;;3.60;;
45039;SDS011;30778;53.574;7.770;2022-08-19T10:08:22;4.22;;;2.60;;
45039;SDS011;30778;53.574;7.770;2022-08-19T10:10:52;3.85;;;2.70;;
45039;SDS011;30778;53.574;7.770;2022-08-19T10:13:21;6.45;;;3.47;;
45039;SDS011;30778;53.574;7.770;2022-08-19T10:15:49;3.67;;;3.35;;
45039;SDS011;30778;53.574;7.770;2022-08-19T10:18:17;3.42;;;2.35;;
45039;SDS011;30778;53.574;7.770;2022-08-19T10:20:45;9.15;;;2.58;;
45039;SDS011;30778;53.574;7.770;2022-08-19T10:23:14;3.05;;;2.58;;
45039;SDS011;30778;53.574;7.770;2022-08-19T10:25:40;4.68;;;2.72;;
45039;SDS011;30778;53.574;7.770;2022-08-19T10:28:06;3.65;;;2.47;;
45039;SDS011;30778;53.574;7.770;2022-08-19T10:30:33;4.43;;;4.03;;
45039;SDS011;30778;53.574;7.770;2022-08-19T10:33:00;3.38;;;3.08;;
45039;SDS011;30778;53.574;7.770;2022-08-19T10:35:26;4.07;;;2.42;;
45039;SDS011;30778;53.574;7.770;2022-08-19T10:37:53;5.40;;;2.35;;
45039;SDS011;30778;53.574;7.770;2022-08-19T10:40:19;3.85;;;3.20;;
45039;SDS011;30778;53.574;7.770;2022-08-19T10:42:44;6.00;;;2.90;;
45039;SDS011;30778;53.574;7.770;2022-08-19T10:45:10;4.30;;;3.60;;
45039;SDS011;30778;53.574;7.770;2022-08-19T10:47:36;3.55;;;3.25;;
45039;SDS011;30778;53.574;7.770;2022-08-19T10:50:02;5.55;;;3.42;;
45039;SDS011;30778;53.574;7.770;2022-08-19T10:52:47;7.35;;;3.50;;
45039;SDS011;30778;53.574;7.770;2022-08-19T10:55:15;5.07;;;3.58;;
45039;SDS011;30778;53.574;7.770;2022-08-19T10:57:59;8.40;;;4.20;;
45039;SDS011;30778;53.574;7.770;2022-08-19T11:00:25;6.22;;;3.70;;
45039;SDS011;30778;53.574;7.770;2022-08-19T11:02:51;3.55;;;3.25;;
45039;SDS011;30778;53.574;7.770;2022-08-19T11:05:17;4.35;;;3.30;;
45039;SDS011;30778;53.574;7.770;2022-08-19T11:07:44;5.22;;;3.47;;
45039;SDS011;30778;53.574;7.770;2022-08-19T11:10:10;5.95;;;3.42;;
45039;SDS011;30778;53.574;7.770;2022-08-19T11:12:39;4.05;;;3.58;;
45039;SDS011;30778;53.574;7.770;2022-08-19T11:15:06;7.82;;;3.30;;
45039;SDS011;30778;53.574;7.770;2022-08-19T11:17:34;4.97;;;3.65;;
45039;SDS011;30778;53.574;7.770;2022-08-19T11:20:01;3.38;;;3.08;;
45039;SDS011;30778;53.574;7.770;2022-08-19T11:22:29;5.30;;;2.58;;
45039;SDS011;30778;53.574;7.770;2022-08-19T11:24:55;6.40;;;3.83;;
45039;SDS011;30778;53.574;7.770;2022-08-19T11:27:20;3.30;;;2.25;;
45039;SDS011;30778;53.574;7.770;2022-08-19T11:29:46;6.93;;;3.08;;
45039;SDS011;30778;53.574;7.770;2022-08-19T11:32:12;6.05;;;3.15;;
45039;SDS011;30778;53.574;7.770;2022-08-19T11:34:38;3.47;;;2.58;;
45039;SDS011;30778;53.574;7.770;2022-08-19T11:37:04;4.63;;;2.58;;
45039;SDS011;30778;53.574;7.770;2022-08-19T11:39:31;1.90;;;1.65;;
45039;SDS011;30778;53.574;7.770;2022-08-19T11:41:58;4.25;;;1.63;;
45039;SDS011;30778;53.574;7.770;2022-08-19T11:44:24;2.78;;;2.05;;
45039;SDS011;30778;53.574;7.770;2022-08-19T11:46:50;3.22;;;1.83;;
45039;SDS011;30778;53.574;7.770;2022-08-19T11:49:18;3.10;;;2.28;;
45039;SDS011;30778;53.574;7.770;2022-08-19T11:51:44;3.60;;;1.70;;
45039;SDS011;30778;53.574;7.770;2022-08-19T11:54:12;6.20;;;1.55;;
45039;SDS011;30778;53.574;7.770;2022-08-19T11:56:40;2.78;;;1.75;;
45039;SDS011;30778;53.574;7.770;2022-08-19T11:59:06;3.33;;;1.80;;
45039;SDS011;30778;53.574;7.770;2022-08-19T12:01:32;2.65;;;1.63;;
45039;SDS011;30778;53.574;7.770;2022-08-19T12:03:58;3.65;;;3.13;;
45039;SDS011;30778;53.574;7.770;2022-08-19T12:06:29;5.25;;;1.50;;
45039;SDS011;30778;53.574;7.770;2022-08-19T12:08:58;1.90;;;1.48;;
45039;SDS011;30778;53.574;7.770;2022-08-19T12:11:25;2.95;;;1.50;;
45039;SDS011;30778;53.574;7.770;2022-08-19T12:13:51;1.38;;;0.82;;
45039;SDS011;30778;53.574;7.770;2022-08-19T12:16:21;3.35;;;1.20;;
45039;SDS011;30778;53.574;7.770;2022-08-19T12:18:49;3.38;;;1.70;;
45039;SDS011;30778;53.574;7.770;2022-08-19T12:21:17;7.18;;;1.67;;
45039;SDS011;30778;53.574;7.770;2022-08-19T12:23:46;1.93;;;1.33;;
45039;SDS011;30778;53.574;7.770;2022-08-19T12:26:13;4.72;;;1.77;;
45039;SDS011;30778;53.574;7.770;2022-08-19T12:28:39;3.88;;;2.70;;
45039;SDS011;30778;53.574;7.770;2022-08-19T12:31:05;2.28;;;1.95;;
45039;SDS011;30778;53.574;7.770;2022-08-19T12:33:31;2.35;;;1.58;;
45039;SDS011;30778;53.574;7.770;2022-08-19T12:36:04;3.63;;;1.73;;
45039;SDS011;30778;53.574;7.770;2022-08-19T12:38:31;3.58;;;2.85;;
45039;SDS011;30778;53.574;7.770;2022-08-19T12:40:57;1.83;;;1.20;;
45039;SDS011;30778;53.574;7.770;2022-08-19T12:43:24;4.70;;;1.55;;
45039;SDS011;30778;53.574;7.770;2022-08-19T12:45:49;3.25;;;1.52;;
45039;SDS011;30778;53.574;7.770;2022-08-19T12:48:15;2.10;;;1.20;;
45039;SDS011;30778;53.574;7.770;2022-08-19T12:50:42;2.50;;;1.55;;
45039;SDS011;30778;53.574;7.770;2022-08-19T12:53:10;3.17;;;2.22;;
45039;SDS011;30778;53.574;7.770;2022-08-19T12:55:36;1.95;;;1.23;;
45039;SDS011;30778;53.574;7.770;2022-08-19T12:58:02;3.05;;;1.20;;
45039;SDS011;30778;53.574;7.770;2022-08-19T13:00:27;1.58;;;1.38;;
45039;SDS011;30778;53.574;7.770;2022-08-19T13:02:53;3.25;;;1.25;;
45039;SDS011;30778;53.574;7.770;2022-08-19T13:05:20;2.60;;;1.80;;
45039;SDS011;30778;53.574;7.770;2022-08-19T13:07:49;3.10;;;1.90;;
45039;SDS011;30778;53.574;7.770;2022-08-19T13:10:16;3.05;;;1.67;;
45039;SDS011;30778;53.574;7.770;2022-08-19T13:12:45;3.97;;;1.25;;
45039;SDS011;30778;53.574;7.770;2022-08-19T13:15:12;2.28;;;1.35;;
45039;SDS011;30778;53.574;7.770;2022-08-19T13:17:39;1.13;;;0.88;;
45039;SDS011;30778;53.574;7.770;2022-08-19T13:20:05;2.35;;;1.17;;
45039;SDS011;30778;53.574;7.770;2022-08-19T13:22:33;2.75;;;0.93;;
45039;SDS011;30778;53.574;7.770;2022-08-19T13:25:00;4.50;;;1.15;;
45039;SDS011;30778;53.574;7.770;2022-08-19T13:27:26;3.65;;;0.88;;
45039;SDS011;30778;53.574;7.770;2022-08-19T13:29:51;2.35;;;1.20;;
45039;SDS011;30778;53.574;7.770;2022-08-19T13:32:35;2.67;;;1.02;;
45039;SDS011;30778;53.574;7.770;2022-08-19T13:35:19;3.53;;;0.98;;
45039;SDS011;30778;53.574;7.770;2022-08-19T13:37:45;1.65;;;1.25;;
45039;SDS011;30778;53.574;7.770;2022-08-19T13:40:13;1.33;;;1.20;;
45039;SDS011;30778;53.574;7.770;2022-08-19T13:42:44;2.83;;;1.42;;
45039;SDS011;30778;53.574;7.770;2022-08-19T13:45:12;3.00;;;1.75;;
45039;SDS011;30778;53.574;7.770;2022-08-19T13:47:40;2.65;;;0.70;;
45039;SDS011;30778;53.574;7.770;2022-08-19T13:50:08;2.80;;;1.33;;
45039;SDS011;30778;53.574;7.770;2022-08-19T13:52:36;3.63;;;1.90;;
45039;SDS011;30778;53.574;7.770;2022-08-19T13:55:03;1.13;;;1.02;;
45039;SDS011;30778;53.574;7.770;2022-08-19T13:57:29;3.28;;;0.98;;
45039;SDS011;30778;53.574;7.770;2022-08-19T13:59:55;1.95;;;0.90;;
45039;SDS011;30778;53.574;7.770;2022-08-19T14:02:22;1.58;;;1.02;;
45039;SDS011;30778;53.574;7.770;2022-08-19T14:04:47;1.55;;;0.80;;
45039;SDS011;30778;53.574;7.770;2022-08-19T14:07:13;1.20;;;0.98;;
45039;SDS011;30778;53.574;7.770;2022-08-19T14:09:39;1.83;;;1.10;;
45039;SDS011;30778;53.574;7.770;2022-08-19T14:12:04;1.80;;;0.80;;
45039;SDS011;30778;53.574;7.770;2022-08-19T14:14:30;2.22;;;0.95;;
45039;SDS011;30778;53.574;7.770;2022-08-19T14:16:56;2.53;;;1.83;;
45039;SDS011;30778;53.574;7.770;2022-08-19T14:19:22;2.67;;;1.13;;
45039;SDS011;30778;53.574;7.770;2022-08-19T14:21:47;1.48;;;0.80;;
45039;SDS011;30778;53.574;7.770;2022-08-19T14:24:13;2.08;;;1.27;;
45039;SDS011;30778;53.574;7.770;2022-08-19T14:26:38;2.80;;;1.30;;
45039;SDS011;30778;53.574;7.770;2022-08-19T14:29:04;3.28;;;0.85;;
45039;SDS011;30778;53.574;7.770;2022-08-19T14:31:29;2.30;;;1.15;;
45039;SDS011;30778;53.574;7.770;2022-08-19T14:33:55;1.52;;;1.25;;
45039;SDS011;30778;53.574;7.770;2022-08-19T14:36:20;2.83;;;1.10;;
45039;SDS011;30778;53.574;7.770;2022-08-19T14:38:46;1.10;;;0.80;;
45039;SDS011;30778;53.574;7.770;2022-08-19T14:41:18;2.92;;;1.08;;
45039;SDS011;30778;53.574;7.770;2022-08-19T14:43:48;1.73;;;1.48;;
45039;SDS011;30778;53.574;7.770;2022-08-19T14:46:16;2.08;;;1.40;;
45039;SDS011;30778;53.574;7.770;2022-08-19T14:48:45;2.40;;;1.00;;
45039;SDS011;30778;53.574;7.770;2022-08-19T14:51:12;2.03;;;1.13;;
45039;SDS011;30778;53.574;7.770;2022-08-19T14:53:38;2.60;;;1.55;;
45039;SDS011;30778;53.574;7.770;2022-08-19T14:56:10;3.67;;;2.22;;
45039;SDS011;30778;53.574;7.770;2022-08-19T14:58:38;4.63;;;1.42;;
45039;SDS011;30778;53.574;7.770;2022-08-19T15:01:06;4.10;;;1.20;;
45039;SDS011;30778;53.574;7.770;2022-08-19T15:03:32;1.90;;;1.70;;
45039;SDS011;30778;53.574;7.770;2022-08-19T15:06:01;2.70;;;1.77;;
45039;SDS011;30778;53.574;7.770;2022-08-19T15:08:29;3.30;;;1.80;;
45039;SDS011;30778;53.574;7.770;2022-08-19T15:10:57;3.83;;;1.17;;